sensor_id;sensor_type;location;lat;lon;timestamp;P1;durP1;ratioP1;P2;durP2;ratioP2
1831;SDS011;1680;48.106;11.708;2022-09-20T00:01:46;1.47;;;1.10;;
1831;SDS011;1680;48.106;11.708;2022-09-20T00:04:14;0.93;;;0.90;;
1831;SDS011;1680;48.106;11.708;2022-09-20T00:06:41;1.67;;;1.00;;
1831;SDS011;1680;48.106;11.708;2022-09-20T00:09:07;1.30;;;1.20;;
1831;SDS011;1680;48.106;11.708;2022-09-20T00:11:35;1.10;;;1.00;;
1831;SDS011;1680;48.106;11.708;2022-09-20T00:14:02;2.10;;;1.13;;
1831;SDS011;1680;48.106;11.708;2022-09-20T00:16:31;3.43;;;1.10;;
1831;SDS011;1680;48.106;11.708;2022-09-20T00:18:59;1.20;;;1.00;;
1831;SDS011;1680;48.106;11.708;2022-09-20T00:21:28;1.10;;;1.00;;
1831;SDS011;1680;48.106;11.708;2022-09-20T00:23:56;2.87;;;1.00;;
1831;SDS011;1680;48.106;11.708;2022-09-20T00:26:23;1.10;;;1.00;;
1831;SDS011;1680;48.106;11.708;2022-09-20T00:28:51;1.83;;;0.90;;
1831;SDS011;1680;48.106;11.708;2022-09-20T00:31:18;1.30;;;1.20;;
1831;SDS011;1680;48.106;11.708;2022-09-20T00:33:45;4.17;;;0.97;;
1831;SDS011;1680;48.106;11.708;2022-09-20T00:36:29;2.57;;;1.43;;
1831;SDS011;1680;48.106;11.708;2022-09-20T00:38:57;1.20;;;1.10;;
1831;SDS011;1680;48.106;11.708;2022-09-20T00:41:24;1.93;;;1.37;;
1831;SDS011;1680;48.106;11.708;2022-09-20T00:43:53;1.33;;;1.23;;
1831;SDS011;1680;48.106;11.708;2022-09-20T00:46:21;1.93;;;1.20;;
1831;SDS011;1680;48.106;11.708;2022-09-20T00:48:48;1.57;;;1.30;;
1831;SDS011;1680;48.106;11.708;2022-09-20T00:51:17;1.10;;;1.00;;
1831;SDS011;1680;48.106;11.708;2022-09-20T00:53:46;1.43;;;1.33;;
1831;SDS011;1680;48.106;11.708;2022-09-20T00:56:14;2.70;;;1.47;;
1831;SDS011;1680;48.106;11.708;2022-09-20T00:58:43;0.90;;;0.90;;
1831;SDS011;1680;48.106;11.708;2022-09-20T01:01:13;1.10;;;1.00;;
1831;SDS011;1680;48.106;11.708;2022-09-20T01:03:40;1.20;;;1.10;;
1831;SDS011;1680;48.106;11.708;2022-09-20T01:06:08;1.80;;;1.03;;
1831;SDS011;1680;48.106;11.708;2022-09-20T01:08:35;1.20;;;1.10;;
1831;SDS011;1680;48.106;11.708;2022-09-20T01:11:03;1.00;;;0.83;;
1831;SDS011;1680;48.106;11.708;2022-09-20T01:13:30;2.27;;;1.13;;
1831;SDS011;1680;48.106;11.708;2022-09-20T01:15:56;1.33;;;1.13;;
1831;SDS011;1680;48.106;11.708;2022-09-20T01:18:25;1.13;;;1.03;;
1831;SDS011;1680;48.106;11.708;2022-09-20T01:20:53;0.90;;;0.90;;
1831;SDS011;1680;48.106;11.708;2022-09-20T01:23:26;2.83;;;1.63;;
1831;SDS011;1680;48.106;11.708;2022-09-20T01:28:52;2.00;;;1.20;;
1831;SDS011;1680;48.106;11.708;2022-09-20T01:31:27;1.50;;;1.10;;
1831;SDS011;1680;48.106;11.708;2022-09-20T01:33:57;1.70;;;1.40;;
1831;SDS011;1680;48.106;11.708;2022-09-20T01:36:25;1.47;;;1.00;;
1831;SDS011;1680;48.106;11.708;2022-09-20T01:38:59;1.40;;;1.30;;
1831;SDS011;1680;48.106;11.708;2022-09-20T01:41:30;2.17;;;1.27;;
1831;SDS011;1680;48.106;11.708;2022-09-20T01:44:03;1.40;;;1.30;;
1831;SDS011;1680;48.106;11.708;2022-09-20T01:46:32;1.03;;;0.93;;
1831;SDS011;1680;48.106;11.708;2022-09-20T01:49:03;1.63;;;1.33;;
1831;SDS011;1680;48.106;11.708;2022-09-20T01:57:21;1.63;;;1.20;;
1831;SDS011;1680;48.106;11.708;2022-09-20T02:00:00;1.80;;;1.20;;
1831;SDS011;1680;48.106;11.708;2022-09-20T02:05:27;3.33;;;1.63;;
1831;SDS011;1680;48.106;11.708;2022-09-20T02:10:46;1.70;;;1.33;;
1831;SDS011;1680;48.106;11.708;2022-09-20T02:13:26;1.10;;;1.00;;
1831;SDS011;1680;48.106;11.708;2022-09-20T02:18:41;2.13;;;1.33;;
1831;SDS011;1680;48.106;11.708;2022-09-20T02:21:13;1.67;;;1.57;;
1831;SDS011;1680;48.106;11.708;2022-09-20T02:23:43;1.40;;;1.27;;
1831;SDS011;1680;48.106;11.708;2022-09-20T02:26:23;1.67;;;1.50;;
1831;SDS011;1680;48.106;11.708;2022-09-20T02:28:54;4.50;;;1.27;;
1831;SDS011;1680;48.106;11.708;2022-09-20T02:31:24;1.43;;;1.27;;
1831;SDS011;1680;48.106;11.708;2022-09-20T02:33:59;1.53;;;1.07;;
1831;SDS011;1680;48.106;11.708;2022-09-20T02:36:31;1.17;;;1.07;;
1831;SDS011;1680;48.106;11.708;2022-09-20T02:39:02;1.10;;;1.00;;
1831;SDS011;1680;48.106;11.708;2022-09-20T02:41:47;1.10;;;1.00;;
1831;SDS011;1680;48.106;11.708;2022-09-20T02:44:19;1.00;;;1.00;;
1831;SDS011;1680;48.106;11.708;2022-09-20T02:46:50;1.60;;;1.20;;
1831;SDS011;1680;48.106;11.708;2022-09-20T02:49:20;1.13;;;1.03;;
1831;SDS011;1680;48.106;11.708;2022-09-20T02:51:52;1.93;;;1.00;;
1831;SDS011;1680;48.106;11.708;2022-09-20T02:54:24;1.23;;;1.10;;
1831;SDS011;1680;48.106;11.708;2022-09-20T02:56:55;1.53;;;1.00;;
1831;SDS011;1680;48.106;11.708;2022-09-20T02:59:25;1.10;;;1.10;;
1831;SDS011;1680;48.106;11.708;2022-09-20T03:01:58;1.30;;;1.20;;
1831;SDS011;1680;48.106;11.708;2022-09-20T03:04:32;1.00;;;1.00;;
1831;SDS011;1680;48.106;11.708;2022-09-20T03:07:02;1.43;;;1.10;;
1831;SDS011;1680;48.106;11.708;2022-09-20T03:09:33;1.40;;;1.30;;
1831;SDS011;1680;48.106;11.708;2022-09-20T03:12:05;2.10;;;1.27;;
1831;SDS011;1680;48.106;11.708;2022-09-20T03:14:36;1.20;;;1.10;;
1831;SDS011;1680;48.106;11.708;2022-09-20T03:17:04;3.00;;;1.40;;
1831;SDS011;1680;48.106;11.708;2022-09-20T03:19:41;1.27;;;1.10;;
1831;SDS011;1680;48.106;11.708;2022-09-20T03:22:13;1.30;;;1.20;;
1831;SDS011;1680;48.106;11.708;2022-09-20T03:24:42;1.67;;;1.47;;
1831;SDS011;1680;48.106;11.708;2022-09-20T03:27:12;1.30;;;1.20;;
1831;SDS011;1680;48.106;11.708;2022-09-20T03:29:46;2.10;;;1.13;;
1831;SDS011;1680;48.106;11.708;2022-09-20T03:32:22;2.00;;;1.10;;
1831;SDS011;1680;48.106;11.708;2022-09-20T03:34:58;1.70;;;1.40;;
1831;SDS011;1680;48.106;11.708;2022-09-20T03:37:31;3.93;;;1.57;;
1831;SDS011;1680;48.106;11.708;2022-09-20T03:42:46;1.50;;;1.30;;
1831;SDS011;1680;48.106;11.708;2022-09-20T03:45:35;2.10;;;1.27;;
1831;SDS011;1680;48.106;11.708;2022-09-20T03:48:12;1.97;;;1.60;;
1831;SDS011;1680;48.106;11.708;2022-09-20T03:50:48;1.60;;;1.50;;
1831;SDS011;1680;48.106;11.708;2022-09-20T03:53:32;2.10;;;1.20;;
1831;SDS011;1680;48.106;11.708;2022-09-20T03:56:11;3.50;;;1.30;;
1831;SDS011;1680;48.106;11.708;2022-09-20T03:58:46;2.33;;;1.30;;
1831;SDS011;1680;48.106;11.708;2022-09-20T04:01:23;1.57;;;1.00;;
1831;SDS011;1680;48.106;11.708;2022-09-20T04:03:56;1.33;;;1.17;;
1831;SDS011;1680;48.106;11.708;2022-09-20T04:06:34;1.50;;;1.20;;
1831;SDS011;1680;48.106;11.708;2022-09-20T04:09:12;1.97;;;1.50;;
1831;SDS011;1680;48.106;11.708;2022-09-20T04:11:42;2.80;;;1.20;;
1831;SDS011;1680;48.106;11.708;2022-09-20T04:14:13;1.57;;;1.47;;
1831;SDS011;1680;48.106;11.708;2022-09-20T04:16:42;2.13;;;1.43;;
1831;SDS011;1680;48.106;11.708;2022-09-20T04:19:11;2.77;;;1.30;;
1831;SDS011;1680;48.106;11.708;2022-09-20T04:21:42;4.13;;;1.83;;
1831;SDS011;1680;48.106;11.708;2022-09-20T04:24:11;1.90;;;1.80;;
1831;SDS011;1680;48.106;11.708;2022-09-20T04:26:46;1.73;;;1.57;;
1831;SDS011;1680;48.106;11.708;2022-09-20T04:29:21;3.40;;;1.60;;
1831;SDS011;1680;48.106;11.708;2022-09-20T04:31:51;1.50;;;1.40;;
1831;SDS011;1680;48.106;11.708;2022-09-20T04:34:22;1.50;;;1.40;;
1831;SDS011;1680;48.106;11.708;2022-09-20T04:37:17;3.40;;;1.60;;
1831;SDS011;1680;48.106;11.708;2022-09-20T04:39:48;1.70;;;1.60;;
1831;SDS011;1680;48.106;11.708;2022-09-20T04:42:31;1.83;;;1.30;;
1831;SDS011;1680;48.106;11.708;2022-09-20T04:45:13;2.10;;;1.63;;
1831;SDS011;1680;48.106;11.708;2022-09-20T04:47:46;1.70;;;1.37;;
1831;SDS011;1680;48.106;11.708;2022-09-20T04:50:32;2.23;;;1.80;;
1831;SDS011;1680;48.106;11.708;2022-09-20T04:53:23;2.53;;;1.70;;
1831;SDS011;1680;48.106;11.708;2022-09-20T04:55:57;2.27;;;1.50;;
1831;SDS011;1680;48.106;11.708;2022-09-20T05:03:57;1.60;;;1.50;;
1831;SDS011;1680;48.106;11.708;2022-09-20T05:06:39;1.80;;;1.70;;
1831;SDS011;1680;48.106;11.708;2022-09-20T05:09:28;1.80;;;1.50;;
1831;SDS011;1680;48.106;11.708;2022-09-20T05:12:01;2.23;;;1.50;;
1831;SDS011;1680;48.106;11.708;2022-09-20T05:14:38;1.47;;;1.30;;
1831;SDS011;1680;48.106;11.708;2022-09-20T05:17:19;1.77;;;1.60;;
1831;SDS011;1680;48.106;11.708;2022-09-20T05:19:52;1.57;;;1.47;;
1831;SDS011;1680;48.106;11.708;2022-09-20T05:25:22;1.67;;;1.33;;
1831;SDS011;1680;48.106;11.708;2022-09-20T05:27:51;3.13;;;1.70;;
1831;SDS011;1680;48.106;11.708;2022-09-20T05:30:23;2.53;;;1.70;;
1831;SDS011;1680;48.106;11.708;2022-09-20T05:32:51;2.30;;;1.40;;
1831;SDS011;1680;48.106;11.708;2022-09-20T05:35:22;1.77;;;1.67;;
1831;SDS011;1680;48.106;11.708;2022-09-20T05:37:54;2.73;;;1.60;;
1831;SDS011;1680;48.106;11.708;2022-09-20T05:40:27;3.53;;;2.20;;
1831;SDS011;1680;48.106;11.708;2022-09-20T05:42:57;3.00;;;2.20;;
1831;SDS011;1680;48.106;11.708;2022-09-20T05:45:32;3.43;;;2.50;;
1831;SDS011;1680;48.106;11.708;2022-09-20T05:48:04;3.40;;;2.70;;
1831;SDS011;1680;48.106;11.708;2022-09-20T05:50:38;3.00;;;2.70;;
1831;SDS011;1680;48.106;11.708;2022-09-20T05:53:23;3.83;;;2.30;;
1831;SDS011;1680;48.106;11.708;2022-09-20T05:55:54;2.40;;;1.90;;
1831;SDS011;1680;48.106;11.708;2022-09-20T05:58:33;4.07;;;2.27;;
1831;SDS011;1680;48.106;11.708;2022-09-20T06:01:06;2.30;;;2.03;;
1831;SDS011;1680;48.106;11.708;2022-09-20T06:03:35;2.50;;;2.00;;
1831;SDS011;1680;48.106;11.708;2022-09-20T06:06:06;2.03;;;1.70;;
1831;SDS011;1680;48.106;11.708;2022-09-20T06:08:57;3.13;;;1.83;;
1831;SDS011;1680;48.106;11.708;2022-09-20T06:11:45;1.70;;;1.60;;
1831;SDS011;1680;48.106;11.708;2022-09-20T06:14:17;1.77;;;1.67;;
1831;SDS011;1680;48.106;11.708;2022-09-20T06:16:46;2.33;;;1.40;;
1831;SDS011;1680;48.106;11.708;2022-09-20T06:19:17;1.83;;;1.40;;
1831;SDS011;1680;48.106;11.708;2022-09-20T06:21:47;3.30;;;2.00;;
1831;SDS011;1680;48.106;11.708;2022-09-20T06:24:18;1.60;;;1.50;;
1831;SDS011;1680;48.106;11.708;2022-09-20T06:26:48;1.77;;;1.53;;
1831;SDS011;1680;48.106;11.708;2022-09-20T06:29:16;2.03;;;1.77;;
1831;SDS011;1680;48.106;11.708;2022-09-20T06:31:45;3.43;;;2.00;;
1831;SDS011;1680;48.106;11.708;2022-09-20T06:34:12;3.17;;;2.10;;
1831;SDS011;1680;48.106;11.708;2022-09-20T06:36:42;2.17;;;2.00;;
1831;SDS011;1680;48.106;11.708;2022-09-20T06:39:29;1.87;;;1.77;;
1831;SDS011;1680;48.106;11.708;2022-09-20T06:42:18;2.30;;;2.10;;
1831;SDS011;1680;48.106;11.708;2022-09-20T06:44:44;2.17;;;1.80;;
1831;SDS011;1680;48.106;11.708;2022-09-20T06:47:11;2.27;;;2.07;;
1831;SDS011;1680;48.106;11.708;2022-09-20T06:49:39;5.17;;;1.90;;
1831;SDS011;1680;48.106;11.708;2022-09-20T06:52:06;4.43;;;2.30;;
1831;SDS011;1680;48.106;11.708;2022-09-20T06:54:34;1.90;;;1.57;;
1831;SDS011;1680;48.106;11.708;2022-09-20T06:57:03;2.27;;;2.10;;
1831;SDS011;1680;48.106;11.708;2022-09-20T06:59:31;3.70;;;2.00;;
1831;SDS011;1680;48.106;11.708;2022-09-20T07:01:58;2.43;;;1.73;;
1831;SDS011;1680;48.106;11.708;2022-09-20T07:04:24;3.27;;;2.50;;
1831;SDS011;1680;48.106;11.708;2022-09-20T07:06:51;4.07;;;2.20;;
1831;SDS011;1680;48.106;11.708;2022-09-20T07:09:18;2.23;;;1.90;;
1831;SDS011;1680;48.106;11.708;2022-09-20T07:11:45;3.30;;;2.17;;
1831;SDS011;1680;48.106;11.708;2022-09-20T07:14:11;3.87;;;1.97;;
1831;SDS011;1680;48.106;11.708;2022-09-20T07:16:41;3.80;;;2.10;;
1831;SDS011;1680;48.106;11.708;2022-09-20T07:19:07;2.63;;;2.40;;
1831;SDS011;1680;48.106;11.708;2022-09-20T07:21:34;2.87;;;2.03;;
1831;SDS011;1680;48.106;11.708;2022-09-20T07:24:01;4.40;;;2.50;;
1831;SDS011;1680;48.106;11.708;2022-09-20T07:26:28;3.80;;;2.50;;
1831;SDS011;1680;48.106;11.708;2022-09-20T07:28:55;2.50;;;1.97;;
1831;SDS011;1680;48.106;11.708;2022-09-20T07:31:23;4.40;;;2.57;;
1831;SDS011;1680;48.106;11.708;2022-09-20T07:33:51;1.97;;;1.87;;
1831;SDS011;1680;48.106;11.708;2022-09-20T07:36:18;4.07;;;2.40;;
1831;SDS011;1680;48.106;11.708;2022-09-20T07:38:46;5.00;;;2.60;;
1831;SDS011;1680;48.106;11.708;2022-09-20T07:41:12;3.67;;;2.50;;
1831;SDS011;1680;48.106;11.708;2022-09-20T07:43:39;4.70;;;2.87;;
1831;SDS011;1680;48.106;11.708;2022-09-20T07:46:06;5.83;;;2.90;;
1831;SDS011;1680;48.106;11.708;2022-09-20T07:48:33;4.70;;;2.60;;
1831;SDS011;1680;48.106;11.708;2022-09-20T07:51:02;7.87;;;2.60;;
1831;SDS011;1680;48.106;11.708;2022-09-20T07:53:29;3.93;;;2.67;;
1831;SDS011;1680;48.106;11.708;2022-09-20T07:55:57;3.50;;;2.70;;
1831;SDS011;1680;48.106;11.708;2022-09-20T07:58:24;4.87;;;3.30;;
1831;SDS011;1680;48.106;11.708;2022-09-20T08:00:51;4.47;;;2.90;;
1831;SDS011;1680;48.106;11.708;2022-09-20T08:03:18;6.23;;;3.17;;
1831;SDS011;1680;48.106;11.708;2022-09-20T08:05:45;3.07;;;2.73;;
1831;SDS011;1680;48.106;11.708;2022-09-20T08:08:14;3.50;;;3.17;;
1831;SDS011;1680;48.106;11.708;2022-09-20T08:10:42;3.83;;;3.43;;
1831;SDS011;1680;48.106;11.708;2022-09-20T08:13:09;7.63;;;3.77;;
1831;SDS011;1680;48.106;11.708;2022-09-20T08:15:36;7.30;;;3.60;;
1831;SDS011;1680;48.106;11.708;2022-09-20T08:18:02;5.10;;;3.33;;
1831;SDS011;1680;48.106;11.708;2022-09-20T08:20:29;7.70;;;3.20;;
1831;SDS011;1680;48.106;11.708;2022-09-20T08:22:57;3.57;;;3.23;;
1831;SDS011;1680;48.106;11.708;2022-09-20T08:25:25;4.10;;;2.80;;
1831;SDS011;1680;48.106;11.708;2022-09-20T08:27:52;3.23;;;2.93;;
1831;SDS011;1680;48.106;11.708;2022-09-20T08:30:19;3.37;;;3.07;;
1831;SDS011;1680;48.106;11.708;2022-09-20T08:32:45;3.43;;;2.60;;
1831;SDS011;1680;48.106;11.708;2022-09-20T08:35:12;5.23;;;3.40;;
1831;SDS011;1680;48.106;11.708;2022-09-20T08:37:39;3.43;;;3.03;;
1831;SDS011;1680;48.106;11.708;2022-09-20T08:40:08;4.60;;;2.90;;
1831;SDS011;1680;48.106;11.708;2022-09-20T08:42:37;3.47;;;3.17;;
1831;SDS011;1680;48.106;11.708;2022-09-20T08:45:10;5.27;;;3.20;;
1831;SDS011;1680;48.106;11.708;2022-09-20T08:47:42;4.77;;;4.00;;
1831;SDS011;1680;48.106;11.708;2022-09-20T08:50:09;9.60;;;4.07;;
1831;SDS011;1680;48.106;11.708;2022-09-20T08:52:37;7.53;;;4.03;;
1831;SDS011;1680;48.106;11.708;2022-09-20T08:55:07;5.03;;;3.87;;
1831;SDS011;1680;48.106;11.708;2022-09-20T08:57:40;6.10;;;4.43;;
1831;SDS011;1680;48.106;11.708;2022-09-20T09:00:09;5.53;;;3.57;;
1831;SDS011;1680;48.106;11.708;2022-09-20T09:02:38;5.60;;;4.33;;
1831;SDS011;1680;48.106;11.708;2022-09-20T09:05:05;7.60;;;5.27;;
1831;SDS011;1680;48.106;11.708;2022-09-20T09:07:41;5.17;;;4.43;;
1831;SDS011;1680;48.106;11.708;2022-09-20T09:10:08;6.50;;;4.60;;
1831;SDS011;1680;48.106;11.708;2022-09-20T09:12:35;7.07;;;4.30;;
1831;SDS011;1680;48.106;11.708;2022-09-20T09:15:11;9.20;;;4.80;;
1831;SDS011;1680;48.106;11.708;2022-09-20T09:17:43;6.10;;;5.50;;
1831;SDS011;1680;48.106;11.708;2022-09-20T09:20:14;4.83;;;4.40;;
1831;SDS011;1680;48.106;11.708;2022-09-20T09:22:41;8.67;;;4.80;;
1831;SDS011;1680;48.106;11.708;2022-09-20T09:25:20;6.03;;;4.30;;
1831;SDS011;1680;48.106;11.708;2022-09-20T09:27:54;5.23;;;4.73;;
1831;SDS011;1680;48.106;11.708;2022-09-20T09:30:23;6.30;;;4.70;;
1831;SDS011;1680;48.106;11.708;2022-09-20T09:32:50;5.10;;;4.60;;
1831;SDS011;1680;48.106;11.708;2022-09-20T09:35:21;5.87;;;4.23;;
1831;SDS011;1680;48.106;11.708;2022-09-20T09:37:52;7.40;;;4.80;;
1831;SDS011;1680;48.106;11.708;2022-09-20T09:40:19;6.07;;;4.30;;
1831;SDS011;1680;48.106;11.708;2022-09-20T09:42:49;4.77;;;3.87;;
1831;SDS011;1680;48.106;11.708;2022-09-20T09:45:30;7.00;;;5.67;;
1831;SDS011;1680;48.106;11.708;2022-09-20T09:47:58;6.00;;;5.13;;
1831;SDS011;1680;48.106;11.708;2022-09-20T09:50:26;4.70;;;4.00;;
1831;SDS011;1680;48.106;11.708;2022-09-20T09:52:58;7.90;;;4.20;;
1831;SDS011;1680;48.106;11.708;2022-09-20T09:55:26;6.73;;;4.40;;
1831;SDS011;1680;48.106;11.708;2022-09-20T09:57:55;5.00;;;4.47;;
1831;SDS011;1680;48.106;11.708;2022-09-20T10:00:25;5.00;;;4.50;;
1831;SDS011;1680;48.106;11.708;2022-09-20T10:05:38;7.03;;;4.13;;
1831;SDS011;1680;48.106;11.708;2022-09-20T10:08:12;5.17;;;4.33;;
1831;SDS011;1680;48.106;11.708;2022-09-20T10:10:46;5.93;;;4.80;;
1831;SDS011;1680;48.106;11.708;2022-09-20T10:13:17;5.70;;;4.27;;
1831;SDS011;1680;48.106;11.708;2022-09-20T10:15:48;7.37;;;5.00;;
1831;SDS011;1680;48.106;11.708;2022-09-20T10:18:22;4.90;;;3.93;;
1831;SDS011;1680;48.106;11.708;2022-09-20T10:20:56;4.50;;;3.30;;
1831;SDS011;1680;48.106;11.708;2022-09-20T10:23:27;5.77;;;3.13;;
1831;SDS011;1680;48.106;11.708;2022-09-20T10:25:59;6.10;;;2.83;;
1831;SDS011;1680;48.106;11.708;2022-09-20T10:28:33;3.10;;;2.50;;
1831;SDS011;1680;48.106;11.708;2022-09-20T10:31:15;4.63;;;2.97;;
1831;SDS011;1680;48.106;11.708;2022-09-20T10:33:43;5.47;;;2.93;;
1831;SDS011;1680;48.106;11.708;2022-09-20T10:36:17;3.17;;;2.67;;
1831;SDS011;1680;48.106;11.708;2022-09-20T10:38:51;3.93;;;3.10;;
1831;SDS011;1680;48.106;11.708;2022-09-20T10:41:25;5.73;;;2.60;;
1831;SDS011;1680;48.106;11.708;2022-09-20T10:44:13;3.47;;;2.60;;
1831;SDS011;1680;48.106;11.708;2022-09-20T10:46:45;4.23;;;2.90;;
1831;SDS011;1680;48.106;11.708;2022-09-20T10:49:18;3.10;;;2.40;;
1831;SDS011;1680;48.106;11.708;2022-09-20T10:51:50;3.20;;;2.70;;
1831;SDS011;1680;48.106;11.708;2022-09-20T10:54:24;4.50;;;2.80;;
1831;SDS011;1680;48.106;11.708;2022-09-20T10:56:53;3.37;;;2.83;;
1831;SDS011;1680;48.106;11.708;2022-09-20T10:59:28;5.70;;;2.70;;
1831;SDS011;1680;48.106;11.708;2022-09-20T11:02:03;3.73;;;2.60;;
1831;SDS011;1680;48.106;11.708;2022-09-20T11:07:28;3.73;;;1.93;;
1831;SDS011;1680;48.106;11.708;2022-09-20T11:09:58;2.40;;;1.80;;
1831;SDS011;1680;48.106;11.708;2022-09-20T11:12:27;3.03;;;1.80;;
1831;SDS011;1680;48.106;11.708;2022-09-20T11:14:56;3.33;;;1.50;;
1831;SDS011;1680;48.106;11.708;2022-09-20T11:17:25;3.93;;;1.80;;
1831;SDS011;1680;48.106;11.708;2022-09-20T11:19:56;3.47;;;1.70;;
1831;SDS011;1680;48.106;11.708;2022-09-20T11:22:27;3.43;;;2.53;;
1831;SDS011;1680;48.106;11.708;2022-09-20T11:24:57;3.83;;;2.07;;
1831;SDS011;1680;48.106;11.708;2022-09-20T11:27:28;4.60;;;2.50;;
1831;SDS011;1680;48.106;11.708;2022-09-20T11:29:58;9.60;;;2.40;;
1831;SDS011;1680;48.106;11.708;2022-09-20T11:32:29;2.20;;;1.97;;
1831;SDS011;1680;48.106;11.708;2022-09-20T11:34:58;2.97;;;1.83;;
1831;SDS011;1680;48.106;11.708;2022-09-20T11:37:31;3.60;;;1.93;;
1831;SDS011;1680;48.106;11.708;2022-09-20T11:39:59;3.57;;;2.20;;
1831;SDS011;1680;48.106;11.708;2022-09-20T11:42:26;3.23;;;2.20;;
1831;SDS011;1680;48.106;11.708;2022-09-20T11:44:55;3.67;;;2.03;;
1831;SDS011;1680;48.106;11.708;2022-09-20T11:47:22;3.30;;;2.10;;
1831;SDS011;1680;48.106;11.708;2022-09-20T11:49:55;2.43;;;2.17;;
1831;SDS011;1680;48.106;11.708;2022-09-20T11:52:27;4.83;;;2.57;;
1831;SDS011;1680;48.106;11.708;2022-09-20T11:55:04;6.40;;;2.17;;
1831;SDS011;1680;48.106;11.708;2022-09-20T11:57:32;8.60;;;2.83;;
1831;SDS011;1680;48.106;11.708;2022-09-20T11:59:59;5.87;;;2.40;;
1831;SDS011;1680;48.106;11.708;2022-09-20T12:02:28;4.50;;;2.70;;
1831;SDS011;1680;48.106;11.708;2022-09-20T12:04:58;2.40;;;2.20;;
1831;SDS011;1680;48.106;11.708;2022-09-20T12:07:27;3.60;;;2.30;;
1831;SDS011;1680;48.106;11.708;2022-09-20T12:09:56;4.50;;;2.53;;
1831;SDS011;1680;48.106;11.708;2022-09-20T12:12:31;2.90;;;1.77;;
1831;SDS011;1680;48.106;11.708;2022-09-20T12:15:00;4.67;;;2.13;;
1831;SDS011;1680;48.106;11.708;2022-09-20T12:25:57;4.90;;;2.50;;
1831;SDS011;1680;48.106;11.708;2022-09-20T12:28:33;4.40;;;2.10;;
1831;SDS011;1680;48.106;11.708;2022-09-20T12:33:53;4.00;;;2.00;;
1831;SDS011;1680;48.106;11.708;2022-09-20T12:36:20;3.20;;;2.50;;
1831;SDS011;1680;48.106;11.708;2022-09-20T12:38:52;3.50;;;2.20;;
1831;SDS011;1680;48.106;11.708;2022-09-20T12:41:20;6.63;;;2.10;;
1831;SDS011;1680;48.106;11.708;2022-09-20T12:46:38;3.23;;;2.10;;
1831;SDS011;1680;48.106;11.708;2022-09-20T12:55:24;7.70;;;2.30;;
1831;SDS011;1680;48.106;11.708;2022-09-20T12:57:52;5.10;;;1.90;;
1831;SDS011;1680;48.106;11.708;2022-09-20T13:00:27;3.40;;;2.40;;
1831;SDS011;1680;48.106;11.708;2022-09-20T13:03:00;3.30;;;2.07;;
1831;SDS011;1680;48.106;11.708;2022-09-20T13:05:35;3.30;;;2.00;;
1831;SDS011;1680;48.106;11.708;2022-09-20T13:08:14;2.33;;;2.03;;
1831;SDS011;1680;48.106;11.708;2022-09-20T13:10:42;2.67;;;1.67;;
1831;SDS011;1680;48.106;11.708;2022-09-20T13:13:12;2.70;;;1.97;;
1831;SDS011;1680;48.106;11.708;2022-09-20T13:15:45;5.00;;;2.00;;
1831;SDS011;1680;48.106;11.708;2022-09-20T13:18:14;3.97;;;2.07;;
1831;SDS011;1680;48.106;11.708;2022-09-20T13:20:41;3.27;;;1.63;;
1831;SDS011;1680;48.106;11.708;2022-09-20T13:23:09;3.47;;;2.17;;
1831;SDS011;1680;48.106;11.708;2022-09-20T13:25:41;3.90;;;1.80;;
1831;SDS011;1680;48.106;11.708;2022-09-20T13:28:09;4.93;;;2.00;;
1831;SDS011;1680;48.106;11.708;2022-09-20T13:30:41;4.37;;;2.10;;
1831;SDS011;1680;48.106;11.708;2022-09-20T13:33:18;4.37;;;2.00;;
1831;SDS011;1680;48.106;11.708;2022-09-20T13:35:46;2.40;;;2.10;;
1831;SDS011;1680;48.106;11.708;2022-09-20T13:38:14;4.40;;;2.17;;
1831;SDS011;1680;48.106;11.708;2022-09-20T13:40:44;2.87;;;2.07;;
1831;SDS011;1680;48.106;11.708;2022-09-20T13:43:15;2.73;;;1.73;;
1831;SDS011;1680;48.106;11.708;2022-09-20T13:45:46;1.97;;;1.83;;
1831;SDS011;1680;48.106;11.708;2022-09-20T13:48:12;5.30;;;1.63;;
1831;SDS011;1680;48.106;11.708;2022-09-20T13:50:42;5.83;;;2.63;;
1831;SDS011;1680;48.106;11.708;2022-09-20T13:53:13;3.17;;;2.20;;
1831;SDS011;1680;48.106;11.708;2022-09-20T13:55:40;3.10;;;2.33;;
1831;SDS011;1680;48.106;11.708;2022-09-20T13:58:08;4.83;;;2.30;;
1831;SDS011;1680;48.106;11.708;2022-09-20T14:00:43;3.07;;;2.20;;
1831;SDS011;1680;48.106;11.708;2022-09-20T14:03:11;3.00;;;1.87;;
1831;SDS011;1680;48.106;11.708;2022-09-20T14:05:45;8.60;;;2.67;;
1831;SDS011;1680;48.106;11.708;2022-09-20T14:08:12;4.23;;;2.53;;
1831;SDS011;1680;48.106;11.708;2022-09-20T14:10:41;4.67;;;2.00;;
1831;SDS011;1680;48.106;11.708;2022-09-20T14:13:10;2.77;;;2.00;;
1831;SDS011;1680;48.106;11.708;2022-09-20T14:15:40;4.73;;;2.40;;
1831;SDS011;1680;48.106;11.708;2022-09-20T14:18:08;3.97;;;2.27;;
1831;SDS011;1680;48.106;11.708;2022-09-20T14:20:37;4.23;;;2.17;;
1831;SDS011;1680;48.106;11.708;2022-09-20T14:23:14;3.00;;;2.17;;
1831;SDS011;1680;48.106;11.708;2022-09-20T14:25:41;6.97;;;2.10;;
1831;SDS011;1680;48.106;11.708;2022-09-20T14:28:16;4.67;;;2.47;;
1831;SDS011;1680;48.106;11.708;2022-09-20T14:30:42;3.33;;;2.20;;
1831;SDS011;1680;48.106;11.708;2022-09-20T14:33:13;4.70;;;2.60;;
1831;SDS011;1680;48.106;11.708;2022-09-20T14:35:44;3.50;;;2.20;;
1831;SDS011;1680;48.106;11.708;2022-09-20T14:38:13;3.50;;;2.07;;
1831;SDS011;1680;48.106;11.708;2022-09-20T14:40:40;4.90;;;2.40;;
1831;SDS011;1680;48.106;11.708;2022-09-20T14:43:15;5.03;;;2.30;;
1831;SDS011;1680;48.106;11.708;2022-09-20T14:45:50;3.73;;;1.93;;
1831;SDS011;1680;48.106;11.708;2022-09-20T14:48:29;3.70;;;2.20;;
1831;SDS011;1680;48.106;11.708;2022-09-20T14:51:07;3.70;;;2.40;;
1831;SDS011;1680;48.106;11.708;2022-09-20T14:53:36;5.33;;;2.20;;
1831;SDS011;1680;48.106;11.708;2022-09-20T14:56:07;3.07;;;2.13;;
1831;SDS011;1680;48.106;11.708;2022-09-20T15:01:21;3.10;;;2.03;;
1831;SDS011;1680;48.106;11.708;2022-09-20T15:03:48;2.57;;;2.10;;
1831;SDS011;1680;48.106;11.708;2022-09-20T15:06:15;6.63;;;3.00;;
1831;SDS011;1680;48.106;11.708;2022-09-20T15:08:44;5.07;;;2.40;;
1831;SDS011;1680;48.106;11.708;2022-09-20T15:11:11;4.13;;;2.20;;
1831;SDS011;1680;48.106;11.708;2022-09-20T15:13:38;3.07;;;2.00;;
1831;SDS011;1680;48.106;11.708;2022-09-20T15:16:04;3.33;;;2.20;;
1831;SDS011;1680;48.106;11.708;2022-09-20T15:18:32;4.00;;;2.27;;
1831;SDS011;1680;48.106;11.708;2022-09-20T15:21:01;5.73;;;2.07;;
1831;SDS011;1680;48.106;11.708;2022-09-20T15:23:28;6.60;;;2.03;;
1831;SDS011;1680;48.106;11.708;2022-09-20T15:25:56;2.67;;;2.10;;
1831;SDS011;1680;48.106;11.708;2022-09-20T15:28:22;5.17;;;2.20;;
1831;SDS011;1680;48.106;11.708;2022-09-20T15:30:50;4.43;;;1.97;;
1831;SDS011;1680;48.106;11.708;2022-09-20T15:33:17;3.03;;;2.17;;
1831;SDS011;1680;48.106;11.708;2022-09-20T15:35:44;3.90;;;2.30;;
1831;SDS011;1680;48.106;11.708;2022-09-20T15:38:12;2.80;;;1.50;;
1831;SDS011;1680;48.106;11.708;2022-09-20T15:40:40;4.93;;;1.90;;
1831;SDS011;1680;48.106;11.708;2022-09-20T15:43:08;2.50;;;2.10;;
1831;SDS011;1680;48.106;11.708;2022-09-20T15:45:39;2.53;;;1.90;;
1831;SDS011;1680;48.106;11.708;2022-09-20T15:48:13;3.63;;;2.10;;
1831;SDS011;1680;48.106;11.708;2022-09-20T15:50:39;2.40;;;2.10;;
1831;SDS011;1680;48.106;11.708;2022-09-20T15:53:07;3.10;;;1.83;;
1831;SDS011;1680;48.106;11.708;2022-09-20T15:55:35;4.07;;;2.20;;
1831;SDS011;1680;48.106;11.708;2022-09-20T15:58:01;3.87;;;2.20;;
1831;SDS011;1680;48.106;11.708;2022-09-20T16:00:29;9.47;;;2.70;;
1831;SDS011;1680;48.106;11.708;2022-09-20T16:02:55;3.43;;;2.40;;
1831;SDS011;1680;48.106;11.708;2022-09-20T16:05:22;4.30;;;2.03;;
1831;SDS011;1680;48.106;11.708;2022-09-20T16:07:49;4.17;;;2.40;;
1831;SDS011;1680;48.106;11.708;2022-09-20T16:10:15;2.93;;;2.00;;
1831;SDS011;1680;48.106;11.708;2022-09-20T16:12:42;3.73;;;2.20;;
1831;SDS011;1680;48.106;11.708;2022-09-20T16:15:09;3.93;;;2.17;;
1831;SDS011;1680;48.106;11.708;2022-09-20T16:17:37;3.90;;;2.50;;
1831;SDS011;1680;48.106;11.708;2022-09-20T16:20:21;4.03;;;2.20;;